Time;durP1;ratioP1;P1;durP2;ratioP2;P2;SDS_P1;SDS_P2;PMS_P1;PMS_P2;Temp;Humidity;BMP_temperature;BMP_pressure;BME280_temperature;BME280_humidity;BME280_pressure;Samples;Min_cycle;Max_cycle;Signal;HPM_P1;HPM_P2
2022/10/02 00:02:10;;;;;;;10.27;5.45;;;;;;;12.53;86.55;98944.97;4908700;29;20044;-78
2022/10/02 00:04:46;;;;;;;7.50;4.95;;;;;;;12.48;86.36;98945.09;4936424;29;20102;-79
2022/10/02 00:07:15;;;;;;;8.93;5.43;;;;;;;12.48;86.32;98944.22;4929191;29;20138;-78
2022/10/02 00:09:53;;;;;;;11.60;5.47;;;;;;;12.48;86.32;98945.09;4909281;29;20514;-77
2022/10/02 00:12:22;;;;;;;6.72;4.82;;;;;;;12.50;86.57;98939.81;4912404;29;20648;-77
2022/10/02 00:14:53;;;;;;;7.82;5.00;;;;;;;12.41;86.28;98933.13;4928495;29;20043;-78
2022/10/02 00:17:26;;;;;;;9.05;5.28;;;;;;;12.35;86.36;98944.63;4895520;29;20051;-79
2022/10/02 00:19:55;;;;;;;7.97;5.10;;;;;;;12.25;86.30;98939.72;4928193;29;20058;-78
2022/10/02 00:22:33;;;;;;;8.35;5.70;;;;;;;12.24;86.29;98944.09;4907353;29;20067;-78
2022/10/02 00:25:34;;;;;;;7.18;5.03;;;;;;;12.15;86.33;98936.53;4926839;29;20590;-77
2022/10/02 00:28:30;;;;;;;7.30;4.47;;;;;;;12.16;86.40;98946.06;4903121;29;20051;-79
2022/10/02 00:31:14;;;;;;;6.88;4.55;;;;;;;12.19;86.33;98944.22;4885659;29;20056;-78
2022/10/02 00:33:59;;;;;;;8.82;4.30;;;;;;;12.21;86.36;98954.63;4928999;29;20110;-78
2022/10/02 00:36:49;;;;;;;7.18;4.70;;;;;;;12.16;86.51;98946.06;4927748;29;20135;-78
2022/10/02 00:39:33;;;;;;;8.73;4.75;;;;;;;12.24;86.50;98951.91;4928397;29;20369;-79
2022/10/02 00:42:16;;;;;;;7.47;4.55;;;;;;;12.25;86.31;98953.59;4928421;29;20460;-77
2022/10/02 00:45:13;;;;;;;6.90;4.38;;;;;;;12.27;86.18;98957.03;4912132;29;20523;-78
2022/10/02 00:48:09;;;;;;;5.93;4.00;;;;;;;12.23;86.25;98942.38;4928423;29;20059;-77
2022/10/02 00:50:54;;;;;;;6.70;4.10;;;;;;;12.29;86.35;98955.22;4929568;29;20058;-78
2022/10/02 00:53:38;;;;;;;6.30;4.18;;;;;;;12.28;86.16;98952.69;4930543;29;20048;-78
2022/10/02 00:56:10;;;;;;;6.50;3.80;;;;;;;12.21;85.80;98959.84;4915570;29;20046;-79
2022/10/02 00:58:58;;;;;;;6.32;3.50;;;;;;;12.03;85.95;98951.59;4897035;29;20063;-79
2022/10/02 01:01:45;;;;;;;6.65;3.40;;;;;;;11.93;85.80;98954.50;4932403;29;20048;-77
2022/10/02 01:04:19;;;;;;;4.55;3.38;;;;;;;11.77;85.69;98954.09;4919530;29;20040;-79
2022/10/02 01:06:45;;;;;;;6.50;3.38;;;;;;;11.69;85.79;98965.56;4917393;29;20043;-78
2022/10/02 01:09:11;;;;;;;6.40;3.60;;;;;;;11.61;85.82;98967.50;4931752;29;20044;-77
2022/10/02 01:11:38;;;;;;;5.45;3.45;;;;;;;11.48;85.67;98958.31;4914566;29;20047;-78
2022/10/02 01:14:04;;;;;;;4.60;2.78;;;;;;;11.43;85.91;98964.47;4913834;29;20407;-78
2022/10/02 01:16:31;;;;;;;4.50;3.03;;;;;;;11.36;85.96;98956.88;4931672;29;20057;-76
2022/10/02 01:18:58;;;;;;;4.55;3.50;;;;;;;11.35;85.63;98965.56;4931467;29;20134;-78
2022/10/02 01:21:36;;;;;;;5.03;2.53;;;;;;;11.36;85.90;98968.16;4916300;29;20051;-78
2022/10/02 01:24:13;;;;;;;3.38;2.58;;;;;;;11.36;85.52;98975.09;4937745;29;20039;-78
2022/10/02 01:26:41;;;;;;;4.05;2.38;;;;;;;11.34;85.72;98975.16;4933565;29;20134;-79
2022/10/02 01:29:09;;;;;;;2.92;2.10;;;;;;;11.29;85.51;98964.00;4931087;29;20510;-78
2022/10/02 01:31:35;;;;;;;3.83;2.45;;;;;;;11.29;85.52;98967.44;4905553;29;20050;-78
2022/10/02 01:34:02;;;;;;;2.10;1.90;;;;;;;11.31;85.60;98970.03;4933012;29;20047;-78
2022/10/02 01:36:29;;;;;;;3.25;2.20;;;;;;;11.29;85.11;98977.00;4914683;29;20099;-77
2022/10/02 01:38:57;;;;;;;4.53;2.53;;;;;;;11.30;85.31;98974.34;4909175;29;20110;-79
2022/10/02 01:41:24;;;;;;;4.55;2.22;;;;;;;11.29;85.52;98967.44;4908103;29;20058;-79
2022/10/02 01:43:53;;;;;;;4.70;2.15;;;;;;;11.29;85.60;98977.84;4906342;29;20074;-78
2022/10/02 01:46:40;;;;;;;4.20;2.20;;;;;;;11.30;85.35;98984.78;4897211;29;20059;-77
2022/10/02 01:49:21;;;;;;;3.00;2.30;;;;;;;11.32;85.11;98978.69;4903517;29;20039;-78
2022/10/02 01:51:59;;;;;;;3.60;2.38;;;;;;;11.29;84.89;98988.28;4915543;29;20062;-79
2022/10/02 01:54:25;;;;;;;2.60;2.13;;;;;;;11.27;84.99;98984.00;4932616;29;20104;-78
2022/10/02 01:57:15;;;;;;;3.17;1.88;;;;;;;11.20;84.95;98979.84;4931932;29;20456;-78
2022/10/02 01:59:50;;;;;;;2.85;2.17;;;;;;;11.06;85.09;98975.81;4937778;29;20079;-78
2022/10/02 02:02:50;;;;;;;5.20;1.80;;;;;;;10.95;84.95;98985.63;4933283;29;20039;-78
2022/10/02 02:05:45;;;;;;;1.90;1.70;;;;;;;10.75;84.67;98965.28;4941558;29;20055;-80
2022/10/02 02:08:24;;;;;;;4.70;2.30;;;;;;;10.75;85.07;98976.53;4952577;29;20051;-78
2022/10/02 02:10:56;;;;;;;2.03;1.65;;;;;;;10.70;85.07;98976.63;4943111;29;20760;-79
2022/10/02 02:13:31;;;;;;;3.20;1.70;;;;;;;10.64;84.97;98981.13;4935441;29;20545;-78
2022/10/02 02:16:23;;;;;;;2.63;1.70;;;;;;;10.61;84.72;98991.59;4891447;29;20459;-78
2022/10/02 02:19:09;;;;;;;2.53;1.95;;;;;;;10.53;85.02;98977.00;4915180;29;20043;-78
2022/10/02 02:21:39;;;;;;;3.10;1.90;;;;;;;10.55;85.01;98980.44;4909807;29;20060;-80
2022/10/02 02:24:13;;;;;;;2.55;1.90;;;;;;;10.49;84.62;98984.91;4914499;29;20035;-80
2022/10/02 02:26:42;;;;;;;4.95;1.88;;;;;;;10.37;84.56;98973.84;4916301;29;20051;-80
2022/10/02 02:29:10;;;;;;;3.22;1.63;;;;;;;10.46;84.85;98987.59;4907670;29;20044;-78
2022/10/02 02:31:46;;;;;;;2.70;1.90;;;;;;;10.36;84.85;98973.88;4922903;29;20050;-78
2022/10/02 02:34:19;;;;;;;2.75;1.75;;;;;;;10.31;84.83;98979.19;4933157;29;20074;-78
2022/10/02 02:36:50;;;;;;;3.35;1.70;;;;;;;10.30;85.25;98979.22;4913256;29;20138;-78
2022/10/02 02:39:23;;;;;;;1.98;1.70;;;;;;;10.34;84.50;98989.53;4935675;29;20039;-78
2022/10/02 02:41:58;;;;;;;4.30;1.73;;;;;;;10.31;84.65;98989.59;4920333;29;20047;-77
2022/10/02 02:44:31;;;;;;;2.13;1.70;;;;;;;10.28;84.75;98983.59;4930435;29;20191;-79
2022/10/02 02:47:05;;;;;;;2.50;1.55;;;;;;;10.21;84.71;98977.66;4897482;29;20040;-80
2022/10/02 02:49:57;;;;;;;2.67;1.42;;;;;;;10.17;84.88;98986.41;4929714;29;20075;-79
2022/10/02 02:52:29;;;;;;;;;;;;;;;10.15;84.42;98989.03;4930211;29;20047;-79
2022/10/02 02:55:03;;;;;;;1.88;1.50;;;;;;;10.14;84.81;98994.28;4930182;29;20442;-77
2022/10/02 02:57:38;;;;;;;2.25;1.52;;;;;;;10.14;85.14;98992.53;4908538;29;20617;-78
2022/10/02 03:00:06;;;;;;;2.50;1.60;;;;;;;10.17;84.76;98989.00;4930421;29;20043;-78
2022/10/02 03:02:32;;;;;;;4.47;1.73;;;;;;;10.28;84.86;98984.47;4928240;29;20039;-78
2022/10/02 03:04:58;;;;;;;3.20;1.55;;;;;;;10.42;84.78;99002.41;4930050;29;20655;-78
2022/10/02 03:07:24;;;;;;;2.45;1.42;;;;;;;10.48;84.82;98993.59;4920734;29;20045;-78
2022/10/02 03:10:15;;;;;;;3.90;1.52;;;;;;;10.50;84.41;98989.25;4929506;29;20694;-79
2022/10/02 03:13:02;;;;;;;2.53;1.50;;;;;;;10.47;84.65;98986.69;4893242;29;20138;-79
2022/10/02 03:15:43;;;;;;;2.08;1.63;;;;;;;10.55;84.63;99003.84;4912017;29;20048;-78
2022/10/02 03:18:30;;;;;;;1.60;1.35;;;;;;;10.58;84.06;98999.47;4928067;29;20531;-79
2022/10/02 03:21:26;;;;;;;1.90;1.27;;;;;;;10.59;84.07;99001.19;4929102;29;20514;-77
2022/10/02 03:24:17;;;;;;;3.85;1.88;;;;;;;10.62;84.37;99001.13;4897322;29;20047;-78
2022/10/02 03:26:58;;;;;;;7.40;1.73;;;;;;;10.70;84.79;98994.84;4930401;29;20500;-79
2022/10/02 03:29:45;;;;;;;1.92;1.38;;;;;;;10.68;84.26;99009.66;4929703;29;20046;-80
2022/10/02 03:32:14;;;;;;;2.40;1.15;;;;;;;10.70;84.22;99000.06;4929149;29;20075;-80
2022/10/02 03:34:40;;;;;;;1.88;1.30;;;;;;;10.72;84.07;99012.19;4929400;29;20049;-79
2022/10/02 03:37:07;;;;;;;2.33;1.02;;;;;;;10.71;84.11;98995.69;4929776;29;20360;-80
2022/10/02 03:39:33;;;;;;;2.53;1.40;;;;;;;10.64;83.87;98987.19;4929931;29;20047;-78
2022/10/02 03:42:00;;;;;;;2.63;1.40;;;;;;;10.68;83.74;98983.63;4930491;29;20500;-80
2022/10/02 03:44:26;;;;;;;4.38;1.45;;;;;;;10.81;83.81;98991.16;4929143;29;20483;-78
2022/10/02 03:46:52;;;;;;;1.30;1.10;;;;;;;10.85;83.78;99003.19;4929547;29;20419;-78
2022/10/02 03:49:18;;;;;;;2.13;1.30;;;;;;;10.77;83.93;98987.75;4929296;29;20098;-79
2022/10/02 03:51:44;;;;;;;4.28;1.52;;;;;;;10.82;84.03;98985.91;4912598;29;20036;-80
2022/10/02 03:54:19;;;;;;;1.40;1.13;;;;;;;10.82;83.68;98993.72;4937153;29;20047;-79
2022/10/02 03:57:03;;;;;;;1.85;1.40;;;;;;;10.90;83.50;99000.50;4928374;29;20040;-78
2022/10/02 03:59:52;;;;;;;3.03;1.40;;;;;;;10.96;83.79;99002.94;4935865;29;20043;-81
2022/10/02 04:02:22;;;;;;;2.40;1.40;;;;;;;10.91;83.48;98990.06;4935860;29;20039;-80
2022/10/02 04:05:01;;;;;;;1.67;1.17;;;;;;;10.98;83.45;99007.25;4934354;29;20044;-79
2022/10/02 04:07:41;;;;;;;1.77;1.20;;;;;;;10.95;83.29;99009.91;4934108;29;20047;-80
2022/10/02 04:10:18;;;;;;;3.22;1.20;;;;;;;10.95;83.02;99012.53;4916225;29;20095;-78
2022/10/02 04:12:47;;;;;;;1.77;1.30;;;;;;;10.85;82.84;98988.44;4928004;29;20075;-81
2022/10/02 04:15:22;;;;;;;1.08;0.98;;;;;;;11.00;83.03;99013.28;4934552;29;20553;-79
2022/10/02 04:18:01;;;;;;;1.83;1.10;;;;;;;11.01;83.00;99003.72;4917180;29;20050;-78
2022/10/02 04:20:34;;;;;;;2.50;1.48;;;;;;;11.06;82.72;98996.66;4916447;29;20491;-79
2022/10/02 04:23:14;;;;;;;2.85;1.10;;;;;;;11.04;82.81;98998.44;4931874;29;20036;-78
2022/10/02 04:25:48;;;;;;;2.00;1.30;;;;;;;10.96;82.84;98996.00;4938051;29;20054;-79
2022/10/02 04:28:18;;;;;;;5.63;1.00;;;;;;;11.05;82.54;98994.94;4920623;29;20039;-78
2022/10/02 04:30:48;;;;;;;2.45;1.25;;;;;;;11.12;82.47;98996.53;4939512;29;20139;-81
2022/10/02 04:33:18;;;;;;;1.02;0.93;;;;;;;11.12;82.32;99006.94;4921667;29;20078;-81
2022/10/02 04:35:47;;;;;;;2.33;1.00;;;;;;;11.08;82.98;98994.88;4919969;29;20054;-80
2022/10/02 04:38:32;;;;;;;1.35;0.80;;;;;;;11.25;82.57;99011.84;4921165;29;20499;-81
2022/10/02 04:41:43;;;;;;;1.65;1.00;;;;;;;11.31;82.87;99011.69;4932283;29;20054;-80
2022/10/02 04:44:29;;;;;;;2.10;1.10;;;;;;;11.38;82.24;99017.59;4895998;29;20048;-81
2022/10/02 04:47:10;;;;;;;1.33;0.73;;;;;;;11.36;82.22;99011.56;4932583;29;20074;-80
2022/10/02 04:49:51;;;;;;;2.63;1.05;;;;;;;11.40;82.20;99016.66;4938847;29;20083;-77
2022/10/02 04:52:39;;;;;;;1.57;1.00;;;;;;;11.43;81.99;99006.16;4935797;29;20052;-79
2022/10/02 04:55:11;;;;;;;1.80;0.80;;;;;;;11.44;82.08;98999.22;4916395;29;20043;-81
2022/10/02 04:57:43;;;;;;;1.67;0.80;;;;;;;11.50;81.86;99003.41;4898213;29;20044;-78
2022/10/02 05:00:21;;;;;;;0.98;0.70;;;;;;;11.38;81.42;98984.56;4929073;29;20052;-80
2022/10/02 05:02:59;;;;;;;3.25;0.80;;;;;;;11.51;81.79;98999.91;4930674;29;20047;-77
2022/10/02 05:05:58;;;;;;;1.50;0.80;;;;;;;11.55;81.47;99004.16;4909918;29;20044;-78
2022/10/02 05:08:56;;;;;;;1.30;0.80;;;;;;;11.49;81.32;98993.88;4937585;29;20036;-77
2022/10/02 05:11:56;;;;;;;2.55;0.80;;;;;;;11.55;81.36;98999.78;4932647;29;20491;-78
2022/10/02 05:14:58;;;;;;;2.42;0.68;;;;;;;11.53;81.08;99006.78;4931762;29;20075;-77
2022/10/02 05:17:30;;;;;;;0.90;0.80;;;;;;;11.55;81.23;99007.59;4919131;29;20062;-79
2022/10/02 05:20:23;;;;;;;2.20;0.80;;;;;;;11.56;81.30;99016.28;4915339;29;20047;-77
2022/10/02 05:23:11;;;;;;;3.03;1.10;;;;;;;11.57;81.10;99007.59;4919933;29;20074;-76
2022/10/02 05:25:59;;;;;;;1.80;0.95;;;;;;;11.63;81.18;99014.38;4935428;29;20059;-78
2022/10/02 05:28:36;;;;;;;1.63;0.80;;;;;;;11.70;80.97;99016.78;4933451;29;20504;-78
2022/10/02 05:31:29;;;;;;;1.88;0.85;;;;;;;11.78;80.98;99023.56;4916486;29;20380;-77
2022/10/02 05:34:19;;;;;;;2.17;0.90;;;;;;;11.88;81.00;99007.63;4913250;29;20142;-79
2022/10/02 05:37:28;;;;;;;1.52;0.77;;;;;;;11.97;80.91;99005.66;4883528;29;20075;-79
2022/10/02 05:40:01;;;;;;;2.97;0.90;;;;;;;12.18;80.85;99017.28;4931420;29;20039;-77
2022/10/02 05:42:44;;;;;;;4.22;0.93;;;;;;;12.24;80.61;99019.72;4931191;29;20155;-78
2022/10/02 05:45:28;;;;;;;2.42;0.80;;;;;;;12.26;80.51;99017.91;4933514;29;20046;-78
2022/10/02 05:48:05;;;;;;;1.05;0.73;;;;;;;12.27;80.08;99024.00;4919894;29;20051;-77
2022/10/02 05:50:35;;;;;;;3.53;0.98;;;;;;;12.33;80.17;99011.63;4931802;29;20023;-79
2022/10/02 05:53:14;;;;;;;1.45;0.98;;;;;;;12.38;79.83;99006.28;4908579;29;20055;-77
2022/10/02 05:55:49;;;;;;;0.75;0.65;;;;;;;12.32;79.87;99004.69;4914488;29;20146;-78
2022/10/02 05:58:33;;;;;;;1.83;0.90;;;;;;;12.33;79.50;99016.84;4932459;29;20683;-77
2022/10/02 06:01:13;;;;;;;2.22;0.95;;;;;;;12.31;78.99;98999.53;4914691;29;20043;-78
2022/10/02 06:03:57;;;;;;;1.98;0.60;;;;;;;12.25;78.87;99012.75;4894377;29;20376;-81
2022/10/02 06:06:37;;;;;;;0.85;0.70;;;;;;;12.22;78.90;99011.09;4915627;29;20495;-81
2022/10/02 06:09:12;;;;;;;1.95;0.60;;;;;;;12.26;78.49;99010.09;4929779;29;20035;-78
2022/10/02 06:11:51;;;;;;;1.65;0.80;;;;;;;12.30;78.22;99019.53;4931748;29;20058;-78
2022/10/02 06:14:29;;;;;;;1.08;0.90;;;;;;;12.45;78.24;99017.41;4911398;29;20419;-78
2022/10/02 06:17:01;;;;;;;1.13;0.80;;;;;;;12.47;77.82;99013.84;4928687;29;20597;-79
2022/10/02 06:19:40;;;;;;;4.07;0.90;;;;;;;12.58;77.56;99016.13;4893350;29;20447;-79
2022/10/02 06:22:15;;;;;;;1.75;1.05;;;;;;;12.70;77.21;99012.31;4914563;29;20510;-79
2022/10/02 06:24:50;;;;;;;4.00;1.10;;;;;;;12.70;76.73;99021.88;4896914;29;20067;-79
2022/10/02 06:27:23;;;;;;;2.67;0.90;;;;;;;12.59;76.46;99024.81;4952924;29;20114;-78
2022/10/02 06:29:56;;;;;;;1.52;0.80;;;;;;;12.54;76.36;99024.13;4919495;29;20050;-78
2022/10/02 06:32:44;;;;;;;2.67;1.10;;;;;;;12.46;75.84;99037.38;4888393;29;20067;-78
2022/10/02 06:35:14;;;;;;;3.47;0.93;;;;;;;12.43;75.77;99034.88;4934971;29;20047;-78
2022/10/02 06:38:18;;;;;;;4.78;0.95;;;;;;;12.53;75.64;99036.28;4939277;29;20047;-80
2022/10/02 06:40:56;;;;;;;3.60;1.10;;;;;;;12.68;75.40;99036.75;4935519;29;20472;-78
2022/10/02 06:44:10;;;;;;;5.80;0.90;;;;;;;12.89;75.30;99038.72;4911571;29;20047;-77
2022/10/02 06:47:01;;;;;;;2.00;0.60;;;;;;;12.95;74.81;99038.50;4909999;29;20048;-79
2022/10/02 06:50:01;;;;;;;3.40;0.80;;;;;;;12.98;74.50;99028.88;4901448;29;20044;-79
2022/10/02 06:52:55;;;;;;;4.15;0.82;;;;;;;12.92;73.91;99030.78;4917791;29;20043;-78
2022/10/02 06:55:27;;;;;;;2.67;1.00;;;;;;;12.92;73.72;99036.00;4922125;29;20043;-80
2022/10/02 06:58:05;;;;;;;;;;;;;;;12.90;73.09;99034.34;4943905;29;20035;-79
2022/10/02 07:00:36;;;;;;;3.78;0.95;;;;;;;12.80;73.57;99033.75;4903194;29;19922;-80
2022/10/02 07:03:16;;;;;;;0.80;0.60;;;;;;;12.67;73.33;99032.44;4919196;29;20481;-79
2022/10/02 07:05:52;;;;;;;2.38;0.88;;;;;;;12.64;73.34;99034.22;4933676;29;20043;-80
2022/10/02 07:08:40;;;;;;;2.63;0.82;;;;;;;12.69;73.38;99036.69;4912654;29;20044;-78
2022/10/02 07:11:15;;;;;;;1.55;0.73;;;;;;;12.97;73.32;99043.72;4919609;29;20043;-77
2022/10/02 07:14:10;;;;;;;1.20;0.70;;;;;;;13.15;72.92;99039.66;4906948;29;20098;-79
2022/10/02 07:17:08;;;;;;;1.95;1.00;;;;;;;13.25;72.49;99043.69;4897926;29;20646;-77
2022/10/02 07:19:46;;;;;;;1.02;0.82;;;;;;;13.16;72.26;99033.53;4907334;29;20419;-79
2022/10/02 07:22:29;;;;;;;1.58;0.85;;;;;;;13.23;71.74;99048.09;4929693;29;20191;-81
2022/10/02 07:25:06;;;;;;;4.20;1.00;;;;;;;13.14;71.71;99048.38;4912367;29;20051;-78
2022/10/02 07:28:07;;;;;;;1.05;0.90;;;;;;;13.02;71.81;99038.34;4930439;29;20044;-78
2022/10/02 07:30:56;;;;;;;2.90;0.95;;;;;;;13.07;71.18;99046.88;4913610;29;20044;-79
2022/10/02 07:33:33;;;;;;;4.05;0.95;;;;;;;13.10;71.16;99052.00;4928862;29;20062;-79
2022/10/02 07:36:10;;;;;;;4.82;1.35;;;;;;;12.94;71.21;99035.97;4911907;29;20448;-80
2022/10/02 07:39:15;;;;;;;5.57;1.15;;;;;;;13.02;71.03;99051.38;4893318;29;20191;-79
2022/10/02 07:42:10;;;;;;;3.17;1.15;;;;;;;13.06;70.56;99056.47;4896920;29;20043;-81
2022/10/02 07:44:59;;;;;;;2.35;1.00;;;;;;;13.11;70.58;99046.72;4846083;29;20092;-78
2022/10/02 07:47:34;;;;;;;1.40;0.93;;;;;;;13.05;70.38;99048.69;4888423;29;20075;-79
2022/10/02 07:50:12;;;;;;;7.90;1.20;;;;;;;13.10;70.56;99052.84;4928266;29;20420;-79
2022/10/02 07:53:02;;;;;;;1.67;0.70;;;;;;;13.23;70.21;99050.72;4895935;29;20515;-78
2022/10/02 07:55:28;;;;;;;2.90;0.93;;;;;;;13.31;70.01;99057.47;4912151;29;20058;-79
2022/10/02 07:58:18;;;;;;;2.17;0.90;;;;;;;13.15;69.45;99039.66;4935113;29;20078;-80
2022/10/02 08:00:52;;;;;;;1.73;1.00;;;;;;;13.24;69.91;99055.03;4920514;29;20153;-82
2022/10/02 08:03:41;;;;;;;2.85;1.40;;;;;;;13.21;69.37;99038.63;4920697;29;20039;-78
2022/10/02 08:06:09;;;;;;;1.70;1.15;;;;;;;13.11;69.13;99022.38;4904240;29;20120;-81
2022/10/02 08:08:46;;;;;;;4.47;1.40;;;;;;;13.35;69.38;99048.63;4887351;29;20047;-80
2022/10/02 08:11:18;;;;;;;4.90;1.70;;;;;;;13.24;69.18;99022.84;4914316;29;20063;-79
2022/10/02 08:13:58;;;;;;;4.25;1.50;;;;;;;13.63;69.28;99032.91;4907821;29;20067;-81
2022/10/02 08:16:35;;;;;;;2.53;1.30;;;;;;;13.71;68.92;99037.88;4911654;29;20047;-78
2022/10/02 08:19:06;;;;;;;2.13;0.95;;;;;;;13.71;68.60;99033.50;4897868;29;20512;-84
2022/10/02 08:21:39;;;;;;;1.48;0.90;;;;;;;13.37;68.01;98998.03;4890421;29;20155;-83
2022/10/02 08:24:26;;;;;;;2.70;1.30;;;;;;;13.65;68.30;99057.25;4924413;29;20058;-80
2022/10/02 08:27:08;;;;;;;8.13;1.42;;;;;;;13.62;68.02;99059.97;4924464;29;20047;-90
2022/10/02 08:29:51;;;;;;;3.90;1.25;;;;;;;13.39;67.71;99058.06;4926567;29;20518;-81
2022/10/02 08:32:17;;;;;;;3.10;1.25;;;;;;;13.30;68.14;99056.59;4926539;29;20076;-80
2022/10/02 08:34:43;;;;;;;3.28;1.25;;;;;;;13.45;68.29;99062.28;4917981;29;20039;-80
2022/10/02 08:37:37;;;;;;;3.25;1.02;;;;;;;13.45;67.66;99078.81;4943745;29;20387;-81
2022/10/02 08:40:27;;;;;;;2.53;0.88;;;;;;;13.38;67.79;99082.47;4947077;29;20040;-80
2022/10/02 08:42:59;;;;;;;4.57;1.02;;;;;;;13.36;67.32;99077.31;4938029;29;20567;-81
2022/10/02 08:45:46;;;;;;;1.80;0.90;;;;;;;13.43;67.53;99079.78;4894182;29;20138;-81
2022/10/02 08:48:50;;;;;;;2.53;0.60;;;;;;;13.36;66.95;99084.28;4917602;29;20070;-83
2022/10/02 08:51:34;;;;;;;1.00;0.70;;;;;;;13.31;67.33;99086.22;4929592;29;20064;-81
2022/10/02 08:54:40;;;;;;;3.75;0.80;;;;;;;13.34;66.75;99086.13;4942953;29;20058;-83
2022/10/02 08:57:12;;;;;;;2.90;0.90;;;;;;;13.32;66.49;99083.53;4922703;29;20043;-83
2022/10/02 08:59:54;;;;;;;1.02;0.80;;;;;;;13.31;67.11;99073.97;4924122;29;20060;-84
2022/10/02 09:02:26;;;;;;;2.92;0.85;;;;;;;13.58;66.10;99088.84;4946443;29;20140;-81
2022/10/02 09:04:59;;;;;;;;;;;;;;;14.01;66.97;99076.97;4913081;29;20142;-82
2022/10/02 09:07:53;;;;;;;2.13;0.70;;;;;;;15.41;67.15;99072.69;4909545;29;19919;-80
2022/10/02 09:10:44;;;;;;;1.60;0.70;;;;;;;16.88;66.04;99060.25;4942043;29;20043;-83
2022/10/02 09:13:55;;;;;;;0.75;0.75;;;;;;;18.59;64.07;99055.34;4921930;29;20039;-83
2022/10/02 09:16:24;;;;;;;2.38;0.93;;;;;;;20.55;63.52;99041.50;4925629;29;20174;-85
2022/10/02 09:19:24;;;;;;;3.13;1.02;;;;;;;22.79;59.46;99036.41;4924989;29;20050;-81
2022/10/02 09:21:55;;;;;;;1.30;1.10;;;;;;;24.98;55.82;98998.63;4923168;29;20074;-80
2022/10/02 09:25:00;;;;;;;3.87;1.40;;;;;;;26.49;51.62;99021.53;4882095;29;20039;-80
2022/10/02 09:28:03;;;;;;;3.50;0.90;;;;;;;27.65;47.22;99011.19;4862039;29;20059;-80
2022/10/02 09:30:32;;;;;;;2.20;0.98;;;;;;;28.32;45.30;99004.13;4927573;29;20054;-81
2022/10/02 09:33:31;;;;;;;2.83;1.00;;;;;;;28.54;42.17;99014.44;4953854;29;20138;-83
2022/10/02 09:36:02;;;;;;;1.02;0.80;;;;;;;28.24;39.65;98999.53;4935942;29;20175;-82
2022/10/02 09:38:52;;;;;;;1.45;0.98;;;;;;;28.65;39.75;99018.75;4939053;29;20173;-85
2022/10/02 09:41:33;;;;;;;1.42;0.90;;;;;;;29.14;37.31;99037.22;4919623;29;20039;-79
2022/10/02 09:44:00;;;;;;;3.72;2.22;;;;;;;27.90;37.15;99040.97;4936435;29;20047;-78
2022/10/02 09:46:56;;;;;;;2.88;0.93;;;;;;;26.26;36.54;99037.72;4951526;29;20058;-82
2022/10/02 09:49:39;;;;;;;1.83;1.00;;;;;;;24.77;37.46;99039.31;4938244;29;20059;-80
2022/10/02 09:52:24;;;;;;;3.55;2.25;;;;;;;23.75;38.13;99007.31;4903108;29;20465;-83
2022/10/02 09:55:20;;;;;;;2.95;1.23;;;;;;;24.20;38.09;99039.31;4941041;29;20078;-85
2022/10/02 09:58:05;;;;;;;1.50;1.40;;;;;;;25.71;38.54;99035.25;4921890;29;20048;-83
2022/10/02 10:00:45;;;;;;;3.42;1.10;;;;;;;25.47;37.85;99041.69;4917638;29;20106;-82
2022/10/02 10:03:28;;;;;;;3.65;1.10;;;;;;;24.88;38.55;99027.78;4904594;29;20071;-85
2022/10/02 10:06:16;;;;;;;6.82;1.08;;;;;;;24.25;38.59;99020.31;4935895;29;20426;-80
2022/10/02 10:09:04;;;;;;;3.00;0.90;;;;;;;23.76;39.60;99015.16;4928612;29;20094;-80
2022/10/02 10:11:51;;;;;;;1.83;1.17;;;;;;;23.04;39.33;99028.47;4936531;29;20144;-79
2022/10/02 10:14:28;;;;;;;3.75;0.90;;;;;;;22.03;39.72;99033.72;4920669;29;20050;-78
2022/10/02 10:17:12;;;;;;;1.73;0.70;;;;;;;21.62;40.21;99024.16;4937964;29;20047;-79
2022/10/02 10:19:58;;;;;;;2.05;0.80;;;;;;;21.20;40.30;99040.09;4901917;29;20094;-80
2022/10/02 10:22:37;;;;;;;1.08;0.88;;;;;;;20.75;40.52;99024.38;4913191;29;20037;-85
2022/10/02 10:25:40;;;;;;;3.65;0.90;;;;;;;20.25;41.10;99019.56;4901102;29;20561;-82
2022/10/02 10:28:27;;;;;;;2.53;0.73;;;;;;;20.02;41.39;99039.41;4919854;29;20073;-82
2022/10/02 10:31:30;;;;;;;1.00;0.90;;;;;;;19.56;41.78;99027.13;4901577;29;20500;-81
2022/10/02 10:34:02;;;;;;;4.13;0.90;;;;;;;19.04;42.71;99023.91;4905827;29;20128;-80
2022/10/02 10:40:15;;;;;;;1.45;1.10;;;;;;;18.94;43.87;99023.53;4918874;29;20160;-79
2022/10/02 10:43:09;;;;;;;2.05;1.20;;;;;;;18.98;44.46;99023.41;4878476;29;20051;-80
2022/10/02 10:45:51;;;;;;;2.53;0.90;;;;;;;19.03;44.35;99022.22;4928109;29;20099;-81
2022/10/02 10:48:44;;;;;;;1.15;0.80;;;;;;;19.02;44.48;99009.13;4913123;29;20055;-80
2022/10/02 10:51:35;;;;;;;2.87;1.10;;;;;;;18.82;45.13;99018.97;4896354;29;20047;-84
2022/10/02 10:54:30;;;;;;;2.90;0.90;;;;;;;18.65;45.54;99019.91;4908853;29;20657;-78
2022/10/02 10:57:03;;;;;;;2.15;0.98;;;;;;;18.32;46.20;98999.69;4910794;29;20044;-80
2022/10/02 11:00:09;;;;;;;2.08;1.00;;;;;;;18.20;45.22;99017.03;4911737;29;21383;-79
2022/10/02 11:03:03;;;;;;;2.70;1.27;;;;;;;17.74;46.35;99022.84;4898854;29;20493;-83
2022/10/02 11:05:48;;;;;;;1.42;0.90;;;;;;;17.73;46.76;99018.53;4909216;29;20045;-81
2022/10/02 11:08:29;;;;;;;3.25;1.08;;;;;;;17.83;46.69;99019.75;4913767;29;20052;-81
2022/10/02 11:11:02;;;;;;;1.43;1.33;;;;;;;18.10;46.72;99000.00;4912688;29;20048;-81
2022/10/02 11:13:31;;;;;;;3.97;1.30;;;;;;;18.26;46.32;99006.16;4912301;29;20310;-79
2022/10/02 11:16:16;;;;;;;2.17;1.05;;;;;;;18.05;46.71;98995.81;4904769;29;20591;-81
2022/10/02 11:19:04;;;;;;;1.30;1.10;;;;;;;17.81;47.11;98999.69;4916640;29;20127;-79
2022/10/02 11:21:43;;;;;;;1.25;1.10;;;;;;;17.58;46.98;99002.59;4923706;29;20056;-80
2022/10/02 11:24:27;;;;;;;2.25;1.55;;;;;;;17.17;47.57;99010.75;4899199;29;20050;-81
2022/10/02 11:27:24;;;;;;;1.88;1.48;;;;;;;16.91;48.36;99009.34;4883096;29;20048;-81
2022/10/02 11:30:23;;;;;;;2.47;1.30;;;;;;;16.83;48.95;99013.19;4892122;29;20044;-80
2022/10/02 11:32:58;;;;;;;1.27;1.15;;;;;;;16.65;49.44;99006.19;4911998;29;20179;-80
2022/10/02 11:35:27;;;;;;;3.58;1.40;;;;;;;16.60;49.73;99005.53;4914523;29;20047;-81
2022/10/02 11:38:22;;;;;;;2.80;1.40;;;;;;;16.51;50.61;98991.91;4913475;29;20048;-80
2022/10/02 11:41:14;;;;;;;2.35;1.23;;;;;;;16.50;51.31;98994.63;4892928;29;20079;-79
2022/10/02 11:44:03;;;;;;;3.72;2.60;;;;;;;16.45;51.35;98992.19;4893894;29;20082;-80
2022/10/02 11:46:51;;;;;;;1.35;1.20;;;;;;;16.35;51.48;99001.41;4908255;29;20320;-79
2022/10/02 11:49:26;;;;;;;1.95;1.30;;;;;;;16.27;52.18;99002.59;4894968;29;20056;-78
2022/10/02 11:52:22;;;;;;;2.78;1.30;;;;;;;16.14;51.95;98987.47;4911047;29;20048;-80
2022/10/02 11:54:54;;;;;;;2.15;1.10;;;;;;;16.20;52.17;98997.69;4909867;29;20119;-80
2022/10/02 11:57:25;;;;;;;;;;;;;;;16.32;52.05;98986.66;4905791;29;20052;-80
2022/10/02 12:00:06;;;;;;;2.33;1.30;;;;;;;16.26;51.62;98977.28;4917482;29;20390;-79
2022/10/02 12:03:03;;;;;;;2.13;1.08;;;;;;;16.34;51.34;98979.53;4911196;29;20055;-79
2022/10/02 12:05:34;;;;;;;3.60;1.87;;;;;;;16.29;51.17;98972.81;4935977;29;20048;-80
2022/10/02 12:08:30;;;;;;;3.78;1.30;;;;;;;16.22;51.66;98980.94;4917124;29;20292;-80
2022/10/02 12:11:18;;;;;;;1.65;1.17;;;;;;;16.11;52.24;98959.59;4891044;29;20428;-79
2022/10/02 12:13:50;;;;;;;2.83;1.27;;;;;;;16.15;52.36;98971.69;4909958;29;20047;-79
2022/10/02 12:16:47;;;;;;;1.33;1.20;;;;;;;16.06;51.99;98965.06;4910878;29;20094;-78
2022/10/02 12:28:55;;;;;;;1.98;1.20;;;;;;;15.81;53.12;98953.00;4917906;29;20520;-81
2022/10/02 12:31:37;;;;;;;3.40;1.40;;;;;;;15.79;52.95;98948.72;4909416;29;20068;-80
2022/10/02 12:34:30;;;;;;;;;;;;;;;15.76;53.12;98951.50;4910546;29;20044;-81
2022/10/02 12:37:04;;;;;;;4.15;2.60;;;;;;;15.59;53.05;98944.38;4922887;29;19923;-80
2022/10/02 12:39:53;;;;;;;1.65;1.40;;;;;;;15.46;52.95;98939.63;4910966;29;20072;-80
2022/10/02 12:42:32;;;;;;;3.17;1.80;;;;;;;15.16;53.13;98928.69;4906811;29;20062;-79
2022/10/02 12:44:58;;;;;;;3.08;1.50;;;;;;;15.12;53.56;98935.81;4913163;29;20138;-80
2022/10/02 12:47:42;;;;;;;3.30;1.15;;;;;;;14.99;54.18;98945.13;4913821;29;20142;-79
2022/10/02 12:50:24;;;;;;;4.30;1.73;;;;;;;14.98;54.54;98941.63;4899417;29;20068;-83
2022/10/02 12:53:28;;;;;;;1.40;1.30;;;;;;;15.05;54.77;98937.84;4920290;29;20048;-79